createdAt,value
2019-05-30T00:01:20.869Z,101903.87
2019-05-30T00:03:50.929Z,101905.22
2019-05-30T00:06:21.067Z,101902.27
2019-05-30T00:08:51.563Z,101904.06
2019-05-30T00:11:22.024Z,101910.08
2019-05-30T00:13:52.038Z,101902.38
2019-05-30T00:16:23.943Z,101899.36
2019-05-30T00:18:54.673Z,101909.89
2019-05-30T00:21:25.098Z,101907.48
2019-05-30T00:24:02.081Z,101905.31
2019-05-30T00:26:33.211Z,101905.88
2019-05-30T00:29:04.649Z,101899.95
2019-05-30T00:31:34.727Z,101897.04
2019-05-30T00:34:05.859Z,101887.27
2019-05-30T00:36:37.912Z,101892.52
2019-05-30T00:39:09.209Z,101892.22
2019-05-30T00:41:39.306Z,101887.56
2019-05-30T00:44:09.997Z,101881.06
2019-05-30T00:46:40.568Z,101880.28
2019-05-30T00:49:11.375Z,101871.34
2019-05-30T00:51:41.952Z,101874.02
2019-05-30T00:54:17.485Z,101875.69
2019-05-30T00:56:47.923Z,101869.73
2019-05-30T00:59:19.112Z,101865.86
2019-05-30T01:01:49.229Z,101867.58
2019-05-30T01:04:19.581Z,101865.42
2019-05-30T01:06:49.612Z,101860.22
2019-05-30T01:09:19.878Z,101866.33
2019-05-30T01:12:01.064Z,101869.32
2019-05-30T01:14:31.203Z,101870.56
2019-05-30T01:17:01.687Z,101863.98
2019-05-30T01:19:32.585Z,101867.63
2019-05-30T01:22:03.429Z,101861.57
2019-05-30T01:24:33.690Z,101855.12
2019-05-30T01:27:05.503Z,101854.70
2019-05-30T01:29:42.081Z,101850.36
2019-05-30T01:32:30.658Z,101852.55
2019-05-30T01:35:01.996Z,101854.40
2019-05-30T01:37:32.557Z,101845.30
2019-05-30T01:40:03.936Z,101842.39
2019-05-30T01:42:39.189Z,101836.27
2019-05-30T01:45:12.030Z,101833.36
2019-05-30T01:47:42.206Z,101827.83
2019-05-30T01:50:12.658Z,101830.81
2019-05-30T01:52:43.335Z,101827.41
2019-05-30T01:55:13.437Z,101824.01
2019-05-30T01:57:52.893Z,101821.41
2019-05-30T02:00:27.661Z,101814.41
2019-05-30T02:02:58.791Z,101808.72
2019-05-30T02:05:31.657Z,101807.85
2019-05-30T02:08:05.092Z,101801.27
2019-05-30T02:10:36.571Z,101799.17
2019-05-30T02:13:07.805Z,101795.33
2019-05-30T02:15:37.998Z,101795.82
2019-05-30T02:18:08.143Z,101796.77
2019-05-30T02:20:38.309Z,101798.81
2019-05-30T02:23:09.965Z,101792.25
2019-05-30T02:25:41.549Z,101792.75
2019-05-30T02:28:12.078Z,101793.22
2019-05-30T02:30:42.479Z,101788.83
2019-05-30T02:33:13.167Z,101788.84
2019-05-30T02:35:43.395Z,101791.81
2019-05-30T02:38:13.505Z,101779.22
2019-05-30T02:40:43.606Z,101772.73
2019-05-30T02:43:14.425Z,101777.88
2019-05-30T02:45:44.494Z,101775.21
2019-05-30T02:48:14.521Z,101782.02
2019-05-30T02:50:48.352Z,101773.72
2019-05-30T02:53:18.880Z,101779.22
2019-05-30T02:55:48.941Z,101779.52
2019-05-30T02:58:19.146Z,101783.72
2019-05-30T03:00:49.296Z,101778.82
2019-05-30T03:03:20.698Z,101773.03
2019-05-30T03:05:50.969Z,101766.63
2019-05-30T03:08:21.639Z,101768.14
2019-05-30T03:10:52.194Z,101772.27
2019-05-30T03:13:22.491Z,101757.90
2019-05-30T03:15:53.255Z,101755.09
2019-05-30T03:18:28.927Z,101745.89
2019-05-30T03:20:58.992Z,101750.91
2019-05-30T03:23:29.054Z,101744.25
2019-05-30T03:25:59.489Z,101747.55
2019-05-30T03:28:29.567Z,101742.51
2019-05-30T03:31:00.119Z,101737.56
2019-05-30T03:33:39.037Z,101734.89
2019-05-30T03:36:09.026Z,101733.97
2019-05-30T03:38:33.789Z,101720.34
2019-05-30T03:41:04.710Z,101721.14
2019-05-30T03:43:36.274Z,101714.56
2019-05-30T03:46:10.599Z,101711.23
2019-05-30T03:48:42.293Z,101700.88
2019-05-30T03:51:15.121Z,101697.59
2019-05-30T03:53:45.346Z,101697.38
2019-05-30T03:56:19.651Z,101693.36
2019-05-30T03:59:10.281Z,101698.51
2019-05-30T04:01:54.833Z,101695.45
2019-05-30T04:04:28.639Z,101689.16
2019-05-30T04:07:06.866Z,101682.92
2019-05-30T04:09:42.803Z,101681.17
2019-05-30T04:12:28.793Z,101679.53
2019-05-30T04:15:04.249Z,101674.19
2019-05-30T04:17:34.257Z,101681.11
2019-05-30T04:20:04.964Z,101683.59
2019-05-30T04:22:34.999Z,101683.20
2019-05-30T04:25:05.685Z,101672.78
2019-05-30T04:27:35.813Z,101671.75
2019-05-30T04:30:07.892Z,101668.22
2019-05-30T04:32:37.907Z,101668.12
2019-05-30T04:35:08.128Z,101668.77
2019-05-30T04:37:38.482Z,101666.30
2019-05-30T04:40:08.834Z,101656.59
2019-05-30T04:42:38.973Z,101651.30
2019-05-30T04:45:09.719Z,101652.58
2019-05-30T04:47:41.339Z,101654.59
2019-05-30T04:50:12.217Z,101652.63
2019-05-30T04:52:54.029Z,101649.98
2019-05-30T04:55:25.209Z,101646.27
2019-05-30T04:57:55.262Z,101646.17
2019-05-30T05:00:25.337Z,101648.05
2019-05-30T05:02:55.555Z,101642.38
2019-05-30T05:05:27.069Z,101637.61
2019-05-30T05:07:57.651Z,101640.95
2019-05-30T05:10:27.767Z,101646.63
2019-05-30T05:13:09.213Z,101637.25
2019-05-30T05:15:39.385Z,101640.97
2019-05-30T05:18:09.917Z,101629.61
2019-05-30T05:20:40.551Z,101635.95
2019-05-30T05:23:10.752Z,101636.99
2019-05-30T05:25:40.929Z,101633.79
2019-05-30T05:28:11.005Z,101627.48
2019-05-30T05:30:41.627Z,101628.38
2019-05-30T05:33:12.654Z,101632.36
2019-05-30T05:35:42.782Z,101631.58
2019-05-30T05:38:13.051Z,101627.75
2019-05-30T05:40:44.655Z,101623.30
2019-05-30T05:43:16.719Z,101619.65
2019-05-30T05:45:47.314Z,101614.80
2019-05-30T05:48:22.602Z,101621.14
2019-05-30T05:50:53.149Z,101613.56
2019-05-30T05:53:23.197Z,101615.12
2019-05-30T05:55:53.281Z,101612.39
2019-05-30T05:58:24.404Z,101622.16
2019-05-30T06:00:55.476Z,101613.83
2019-05-30T06:03:28.292Z,101613.03
2019-05-30T06:05:59.576Z,101614.84
2019-05-30T06:08:29.615Z,101617.70
2019-05-30T06:11:00.199Z,101613.08
2019-05-30T06:13:31.939Z,101613.37
2019-05-30T06:16:02.323Z,101613.37
2019-05-30T06:18:34.548Z,101618.29
2019-05-30T06:21:08.955Z,101618.29
2019-05-30T06:23:45.414Z,101621.97
2019-05-30T06:26:14.507Z,101621.97
2019-05-30T06:28:47.089Z,101623.14
2019-05-30T06:31:18.392Z,101623.14
2019-05-30T06:33:49.279Z,101621.75
2019-05-30T06:36:20.930Z,101621.67
2019-05-30T06:38:53.362Z,101620.31
2019-05-30T06:41:27.756Z,101612.42
2019-05-30T06:43:58.609Z,101606.36
2019-05-30T06:46:30.788Z,101603.69
2019-05-30T06:49:03.355Z,101609.47
2019-05-30T06:51:33.999Z,101602.37
2019-05-30T06:54:04.728Z,101611.35
2019-05-30T06:56:38.427Z,101607.21
2019-05-30T06:59:08.847Z,101607.21
2019-05-30T07:01:41.258Z,101602.29
2019-05-30T07:04:13.595Z,101602.29
2019-05-30T07:06:47.407Z,101608.61
2019-05-30T07:09:19.663Z,101603.60
2019-05-30T07:11:50.800Z,101605.64
2019-05-30T07:14:23.156Z,101603.50
2019-05-30T07:16:54.646Z,101597.62
2019-05-30T07:19:27.402Z,101598.28
2019-05-30T07:21:59.194Z,101599.27
2019-05-30T07:24:31.922Z,101595.77
2019-05-30T07:27:03.354Z,101596.20
2019-05-30T07:29:34.330Z,101600.99
2019-05-30T07:32:06.340Z,101602.36
2019-05-30T07:34:37.647Z,101599.19
2019-05-30T07:37:09.001Z,101595.02
2019-05-30T07:39:40.127Z,101593.13
2019-05-30T07:42:11.488Z,101593.67
2019-05-30T07:44:43.565Z,101604.77
2019-05-30T07:47:15.345Z,101604.23
2019-05-30T07:49:46.442Z,101605.66
2019-05-30T07:52:18.620Z,101608.30
2019-05-30T07:54:50.315Z,101612.63
2019-05-30T07:57:22.878Z,101611.11
2019-05-30T07:59:54.399Z,101614.23
2019-05-30T08:02:27.402Z,101599.66
2019-05-30T08:04:59.899Z,101600.35
2019-05-30T08:07:30.677Z,101594.91
2019-05-30T08:10:01.031Z,101604.64
2019-05-30T08:12:32.038Z,101599.16
2019-05-30T08:15:02.162Z,101598.80
2019-05-30T08:17:33.618Z,101603.39
2019-05-30T08:20:03.938Z,101604.31
2019-05-30T08:22:34.226Z,101604.11
2019-05-30T08:25:04.855Z,101603.59
2019-05-30T08:27:34.949Z,101605.20
2019-05-30T08:30:06.455Z,101596.25
2019-05-30T08:32:37.018Z,101595.50
2019-05-30T08:35:08.411Z,101607.38
2019-05-30T08:37:39.401Z,101611.11
2019-05-30T08:40:10.629Z,101610.00
2019-05-30T08:42:41.211Z,101607.63
2019-05-30T08:45:11.976Z,101609.95
2019-05-30T08:47:44.587Z,101622.27
2019-05-30T08:50:15.560Z,101617.73
2019-05-30T08:52:45.698Z,101618.50
2019-05-30T08:55:17.434Z,101612.36
2019-05-30T08:57:47.547Z,101617.17
2019-05-30T09:00:18.037Z,101605.03
2019-05-30T09:02:48.718Z,101620.59
2019-05-30T09:05:19.297Z,101616.77
2019-05-30T09:07:49.739Z,101613.34
2019-05-30T09:10:19.819Z,101616.83
2019-05-30T09:12:50.916Z,101608.87
2019-05-30T09:15:22.382Z,101608.34
2019-05-30T09:17:52.486Z,101608.34
2019-05-30T09:20:23.357Z,101614.52
2019-05-30T09:22:53.587Z,101614.73
2019-05-30T09:25:24.222Z,101614.73
2019-05-30T09:27:54.441Z,101621.84
2019-05-30T09:30:43.270Z,101614.08
2019-05-30T09:33:14.921Z,101614.08
2019-05-30T09:35:45.355Z,101602.39
2019-05-30T09:38:22.379Z,101603.94
2019-05-30T09:40:52.623Z,101603.94
2019-05-30T09:43:22.747Z,101612.94
2019-05-30T09:45:52.894Z,101617.85
2019-05-30T09:48:23.040Z,101617.85
2019-05-30T09:50:53.581Z,101621.84
2019-05-30T09:53:23.839Z,101621.84
2019-05-30T09:55:54.291Z,101612.45
2019-05-30T09:58:25.017Z,101619.52
2019-05-30T10:00:55.136Z,101624.22
2019-05-30T10:03:25.646Z,101628.44
2019-05-30T10:05:55.990Z,101619.95
2019-05-30T10:08:26.489Z,101632.67
2019-05-30T10:10:56.686Z,101626.37
2019-05-30T10:13:27.700Z,101626.37
2019-05-30T10:15:57.826Z,101628.83
2019-05-30T10:18:27.977Z,101618.91
2019-05-30T10:20:58.375Z,101626.13
2019-05-30T10:23:30.450Z,101621.11
2019-05-30T10:26:01.576Z,101621.11
2019-05-30T10:28:32.686Z,101622.55
2019-05-30T10:31:03.277Z,101622.55
2019-05-30T10:33:33.367Z,101627.70
2019-05-30T10:36:03.719Z,101627.70
2019-05-30T10:38:33.713Z,101627.70
2019-05-30T10:41:03.792Z,101621.86
2019-05-30T10:43:34.257Z,101627.67
2019-05-30T10:46:04.924Z,101627.67
2019-05-30T10:48:35.123Z,101619.84
2019-05-30T10:51:05.450Z,101619.84
2019-05-30T10:53:37.676Z,101620.17
2019-05-30T10:56:09.526Z,101623.69
2019-05-30T10:58:39.610Z,101623.69
2019-05-30T11:01:10.093Z,101626.00
2019-05-30T11:03:40.102Z,101626.00
2019-05-30T11:06:24.793Z,101607.45
2019-05-30T11:08:56.922Z,101622.14
2019-05-30T11:11:27.218Z,101620.75
2019-05-30T11:13:57.568Z,101611.81
2019-05-30T11:16:27.745Z,101616.69
2019-05-30T11:18:58.933Z,101616.46
2019-05-30T11:21:29.154Z,101620.13
2019-05-30T11:23:59.352Z,101610.59
2019-05-30T11:26:29.872Z,101616.34
2019-05-30T11:29:02.660Z,101616.34
2019-05-30T11:31:32.868Z,101615.28
2019-05-30T11:34:02.944Z,101619.50
2019-05-30T11:36:33.044Z,101627.13
2019-05-30T11:39:04.471Z,101626.49
2019-05-30T11:41:35.407Z,101626.26
2019-05-30T11:44:06.407Z,101617.77
2019-05-30T11:46:36.940Z,101616.22
2019-05-30T11:49:07.153Z,101621.14
2019-05-30T11:51:37.217Z,101615.12
2019-05-30T11:54:07.256Z,101624.86
2019-05-30T11:56:37.667Z,101617.42
2019-05-30T11:59:07.786Z,101620.05
2019-05-30T12:01:37.906Z,101622.55
2019-05-30T12:04:08.523Z,101614.90
2019-05-30T12:06:38.993Z,101619.05
2019-05-30T12:09:09.389Z,101614.56
2019-05-30T12:11:39.503Z,101615.05
2019-05-30T12:14:10.805Z,101612.06
2019-05-30T12:16:40.927Z,101613.89
2019-05-30T12:19:13.578Z,101611.91
2019-05-30T12:21:44.500Z,101608.31
2019-05-30T12:24:14.741Z,101615.53
2019-05-30T12:26:44.887Z,101619.77
2019-05-30T12:29:15.816Z,101620.29
2019-05-30T12:31:46.146Z,101628.31
2019-05-30T12:34:16.345Z,101616.84
2019-05-30T12:36:46.598Z,101622.00
2019-05-30T12:39:17.576Z,101626.64
2019-05-30T12:41:47.898Z,101631.33
2019-05-30T12:44:18.211Z,101625.44
2019-05-30T12:46:48.343Z,101632.09
2019-05-30T12:49:19.641Z,101628.86
2019-05-30T12:51:52.626Z,101623.70
2019-05-30T12:54:22.776Z,101634.84
2019-05-30T12:56:54.492Z,101638.55
2019-05-30T12:59:25.640Z,101637.94
2019-05-30T13:01:56.814Z,101634.01
2019-05-30T13:04:27.205Z,101626.23
2019-05-30T13:06:59.525Z,101628.31
2019-05-30T13:09:34.405Z,101628.95
2019-05-30T13:12:05.246Z,101632.14
2019-05-30T13:14:35.434Z,101637.27
2019-05-30T13:17:14.649Z,101639.89
2019-05-30T13:19:45.558Z,101641.88
2019-05-30T13:22:16.042Z,101638.92
2019-05-30T13:24:46.387Z,101635.94
2019-05-30T13:27:16.548Z,101643.25
2019-05-30T13:29:46.593Z,101647.40
2019-05-30T13:32:16.830Z,101646.52
2019-05-30T13:34:46.985Z,101644.47
2019-05-30T13:37:17.110Z,101639.43
2019-05-30T13:39:47.573Z,101638.98
2019-05-30T13:42:17.619Z,101636.26
2019-05-30T13:44:47.651Z,101641.92
2019-05-30T13:47:20.033Z,101641.01
2019-05-30T13:49:50.572Z,101640.77
2019-05-30T13:52:20.640Z,101635.72
2019-05-30T13:54:51.216Z,101640.11
2019-05-30T13:57:21.445Z,101638.50
2019-05-30T13:59:53.178Z,101636.55
2019-05-30T14:02:23.385Z,101642.39
2019-05-30T14:04:53.840Z,101641.44
2019-05-30T14:07:23.914Z,101630.95
2019-05-30T14:09:57.252Z,101639.47
2019-05-30T14:12:27.387Z,101638.66
2019-05-30T14:14:57.678Z,101640.48
2019-05-30T14:17:27.751Z,101640.18
2019-05-30T14:19:57.821Z,101638.71
2019-05-30T14:22:28.316Z,101637.25
2019-05-30T14:24:58.413Z,101642.59
2019-05-30T14:27:28.515Z,101635.39
2019-05-30T14:30:00.710Z,101635.98
2019-05-30T14:32:30.827Z,101633.83
2019-05-30T14:35:02.321Z,101640.78
2019-05-30T14:37:40.639Z,101641.55
2019-05-30T14:40:11.443Z,101642.91
2019-05-30T14:42:41.973Z,101642.81
2019-05-30T14:45:14.935Z,101644.63
2019-05-30T14:47:46.264Z,101641.05
2019-05-30T14:50:17.308Z,101642.00
2019-05-30T14:52:48.298Z,101644.07
2019-05-30T14:55:21.729Z,101640.56
2019-05-30T14:57:52.265Z,101647.88
2019-05-30T15:00:22.732Z,101647.72
2019-05-30T15:02:52.910Z,101642.13
2019-05-30T15:05:23.286Z,101643.97
2019-05-30T15:07:53.520Z,101643.25
2019-05-30T15:10:23.576Z,101638.09
2019-05-30T15:12:55.720Z,101639.02
2019-05-30T15:15:26.969Z,101640.55
2019-05-30T15:17:58.219Z,101633.23
2019-05-30T15:20:28.311Z,101633.70
2019-05-30T15:22:58.745Z,101630.52
2019-05-30T15:25:29.737Z,101631.84
2019-05-30T15:28:01.348Z,101634.83
2019-05-30T15:30:31.654Z,101631.55
2019-05-30T15:33:01.698Z,101628.34
2019-05-30T15:35:32.202Z,101626.92
2019-05-30T15:38:02.362Z,101634.81
2019-05-30T15:40:32.429Z,101633.53
2019-05-30T15:43:02.603Z,101634.45
2019-05-30T15:45:33.060Z,101629.77
2019-05-30T15:48:03.310Z,101623.83
2019-05-30T15:50:34.750Z,101631.83
2019-05-30T15:53:04.973Z,101632.29
2019-05-30T15:55:35.536Z,101629.09
2019-05-30T15:58:06.238Z,101628.84
2019-05-30T16:00:37.245Z,101634.38
2019-05-30T16:03:07.327Z,101635.41
2019-05-30T16:05:37.357Z,101624.77
2019-05-30T16:08:07.818Z,101629.78
2019-05-30T16:10:37.814Z,101620.36
2019-05-30T16:13:11.351Z,101629.59
2019-05-30T16:15:44.316Z,101632.22
2019-05-30T16:18:14.262Z,101630.34
2019-05-30T16:20:44.614Z,101624.13
2019-05-30T16:23:16.592Z,101630.13
2019-05-30T16:25:46.989Z,101630.06
2019-05-30T16:28:17.844Z,101630.23
2019-05-30T16:30:48.162Z,101626.68
2019-05-30T16:33:18.480Z,101630.80
2019-05-30T16:35:48.589Z,101639.16
2019-05-30T16:38:20.118Z,101630.91
2019-05-30T16:40:50.227Z,101623.39
2019-05-30T16:43:20.452Z,101630.14
2019-05-30T16:45:54.189Z,101629.77
2019-05-30T16:48:32.810Z,101642.72
2019-05-30T16:51:05.491Z,101642.42
2019-05-30T16:53:41.042Z,101644.21
2019-05-30T16:56:26.285Z,101648.16
2019-05-30T16:59:06.588Z,101646.09
2019-05-30T17:02:04.952Z,101646.16
2019-05-30T17:04:40.378Z,101644.48
2019-05-30T17:07:15.323Z,101645.53
2019-05-30T17:09:51.951Z,101639.52
2019-05-30T17:12:21.649Z,101651.55
2019-05-30T17:14:52.107Z,101642.41
2019-05-30T17:17:22.162Z,101643.27
2019-05-30T17:19:52.283Z,101645.80
2019-05-30T17:22:22.775Z,101640.08
2019-05-30T17:24:54.580Z,101645.98
2019-05-30T17:27:25.296Z,101641.02
2019-05-30T17:29:55.710Z,101642.91
2019-05-30T17:32:25.967Z,101650.42
2019-05-30T17:34:56.000Z,101655.31
2019-05-30T17:37:26.787Z,101654.92
2019-05-30T17:39:56.838Z,101649.48
2019-05-30T17:42:28.996Z,101651.35
2019-05-30T17:44:59.103Z,101654.74
2019-05-30T17:47:29.559Z,101650.31
2019-05-30T17:50:00.403Z,101658.13
2019-05-30T17:52:30.474Z,101661.02
2019-05-30T17:55:00.495Z,101662.61
2019-05-30T17:57:30.790Z,101668.88
2019-05-30T18:00:00.860Z,101665.04
2019-05-30T18:02:30.875Z,101661.00
2019-05-30T18:05:01.177Z,101669.17
2019-05-30T18:07:31.681Z,101674.43
2019-05-30T18:10:02.217Z,101671.81
2019-05-30T18:12:32.346Z,101662.78
2019-05-30T18:15:02.451Z,101670.86
2019-05-30T18:17:32.524Z,101672.17
2019-05-30T18:20:02.706Z,101663.05
2019-05-30T18:22:33.125Z,101670.86
2019-05-30T18:25:03.247Z,101667.28
2019-05-30T18:27:33.951Z,101676.87
2019-05-30T18:30:04.810Z,101673.30
2019-05-30T18:32:34.938Z,101673.30
2019-05-30T18:35:05.754Z,101686.33
2019-05-30T18:37:35.875Z,101686.89
2019-05-30T18:40:07.083Z,101688.10
2019-05-30T18:42:37.781Z,101692.47
2019-05-30T18:45:10.359Z,101699.49
2019-05-30T18:47:40.735Z,101697.81
2019-05-30T18:50:11.554Z,101705.23
2019-05-30T18:52:41.627Z,101704.74
2019-05-30T18:55:11.856Z,101703.53
2019-05-30T18:57:41.953Z,101700.44
2019-05-30T19:00:15.655Z,101698.67
2019-05-30T19:02:44.859Z,101697.42
2019-05-30T19:05:15.060Z,101687.47
2019-05-30T19:07:45.494Z,101681.10
2019-05-30T19:10:16.067Z,101687.83
2019-05-30T19:12:46.180Z,101690.75
2019-05-30T19:15:16.353Z,101691.89
2019-05-30T19:17:46.900Z,101686.07
2019-05-30T19:20:17.511Z,101695.42
2019-05-30T19:22:47.641Z,101704.95
2019-05-30T19:25:17.699Z,101705.70
2019-05-30T19:27:47.919Z,101711.50
2019-05-30T19:30:18.321Z,101708.73
2019-05-30T19:32:48.881Z,101711.45
2019-05-30T19:35:18.999Z,101708.82
2019-05-30T19:37:49.649Z,101703.77
2019-05-30T19:40:20.130Z,101702.15
2019-05-30T19:42:50.250Z,101705.88
2019-05-30T19:45:20.719Z,101717.84
2019-05-30T19:47:50.802Z,101714.64
2019-05-30T19:50:21.262Z,101713.94
2019-05-30T19:52:51.406Z,101721.59
2019-05-30T19:55:21.804Z,101728.79
2019-05-30T19:57:51.936Z,101727.66
2019-05-30T20:00:22.865Z,101730.74
2019-05-30T20:02:53.051Z,101731.29
2019-05-30T20:05:23.108Z,101735.13
2019-05-30T20:07:54.581Z,101739.92
2019-05-30T20:10:24.668Z,101742.77
2019-05-30T20:12:54.782Z,101741.81
2019-05-30T20:15:25.411Z,101741.75
2019-05-30T20:17:55.473Z,101745.05
2019-05-30T20:20:25.550Z,101748.80
2019-05-30T20:22:55.790Z,101746.95
2019-05-30T20:25:26.007Z,101747.80
2019-05-30T20:27:56.523Z,101747.89
2019-05-30T20:30:26.885Z,101743.95
2019-05-30T20:32:56.952Z,101749.56
2019-05-30T20:35:26.998Z,101749.02
2019-05-30T20:37:57.133Z,101746.24
2019-05-30T20:40:27.201Z,101747.55
2019-05-30T20:42:57.777Z,101746.79
2019-05-30T20:45:28.708Z,101751.95
2019-05-30T20:47:58.843Z,101759.36
2019-05-30T20:50:29.383Z,101756.28
2019-05-30T20:53:00.113Z,101746.61
2019-05-30T20:55:31.212Z,101743.92
2019-05-30T20:58:01.275Z,101745.59
2019-05-30T21:00:39.988Z,101744.59
2019-05-30T21:03:11.174Z,101749.48
2019-05-30T21:05:42.457Z,101743.28
2019-05-30T21:08:13.726Z,101742.52
2019-05-30T21:10:44.665Z,101742.13
2019-05-30T21:13:14.764Z,101743.83
2019-05-30T21:15:47.313Z,101745.91
2019-05-30T21:18:18.950Z,101748.53
2019-05-30T21:20:49.034Z,101741.42
2019-05-30T21:23:20.724Z,101739.19
2019-05-30T21:25:51.602Z,101744.65
2019-05-30T21:28:21.679Z,101738.09
2019-05-30T21:30:54.839Z,101752.43
2019-05-30T21:33:25.189Z,101750.93
2019-05-30T21:35:56.068Z,101745.63
2019-05-30T21:38:27.274Z,101751.78
2019-05-30T21:41:03.095Z,101754.26
2019-05-30T21:43:36.983Z,101753.50
2019-05-30T21:46:07.163Z,101749.34
2019-05-30T21:48:45.106Z,101747.42
2019-05-30T21:51:16.260Z,101752.03
2019-05-30T21:53:47.603Z,101745.77
2019-05-30T21:56:18.135Z,101745.98
2019-05-30T21:58:48.355Z,101747.60
2019-05-30T22:01:28.112Z,101749.28
2019-05-30T22:03:58.222Z,101742.50
2019-05-30T22:06:28.421Z,101742.10
2019-05-30T22:09:02.792Z,101740.30
2019-05-30T22:11:30.784Z,101738.16
2019-05-30T22:14:01.062Z,101738.87
2019-05-30T22:16:31.275Z,101735.13
2019-05-30T22:19:01.704Z,101739.31
2019-05-30T22:21:31.947Z,101740.50
2019-05-30T22:24:04.808Z,101739.80
2019-05-30T22:26:35.609Z,101729.00
2019-05-30T22:29:11.378Z,101736.41
2019-05-30T22:31:46.627Z,101729.19
2019-05-30T22:34:16.760Z,101739.02
2019-05-30T22:36:46.941Z,101738.31
2019-05-30T22:39:17.054Z,101741.67
2019-05-30T22:41:47.926Z,101736.20
2019-05-30T22:44:18.107Z,101731.20
2019-05-30T22:46:48.178Z,101725.73
2019-05-30T22:49:18.257Z,101720.58
2019-05-30T22:51:49.003Z,101720.67
2019-05-30T22:54:19.673Z,101696.24
2019-05-30T22:56:49.695Z,101685.63
2019-05-30T22:59:19.877Z,101691.97
2019-05-30T23:01:52.015Z,101694.92
2019-05-30T23:04:21.836Z,101690.38
2019-05-30T23:06:52.445Z,101680.98
2019-05-30T23:09:23.363Z,101680.58
2019-05-30T23:11:53.865Z,101670.70
2019-05-30T23:14:24.052Z,101670.94
2019-05-30T23:16:54.634Z,101673.55
2019-05-30T23:19:24.699Z,101675.81
2019-05-30T23:21:55.247Z,101664.70
2019-05-30T23:24:26.331Z,101669.95
2019-05-30T23:26:56.400Z,101666.56
2019-05-30T23:29:26.531Z,101658.11
2019-05-30T23:31:56.733Z,101647.09
2019-05-30T23:34:26.864Z,101633.45
2019-05-30T23:36:57.302Z,101640.41
2019-05-30T23:39:30.113Z,101643.03
2019-05-30T23:42:00.242Z,101637.16
2019-05-30T23:44:30.513Z,101641.30
2019-05-30T23:47:00.711Z,101632.90
2019-05-30T23:49:31.164Z,101631.89
2019-05-30T23:52:01.505Z,101640.13
2019-05-30T23:54:31.578Z,101639.12
2019-05-30T23:57:03.813Z,101643.36
2019-05-30T23:59:33.853Z,101643.72
